HomeShort term forecast

Short term forecast

Graphical weather forecast for the next 48 hours for Montreal:
Short term forecast
This weather forecast is automatically refreshed every 3 hours.

Hourly Experimental Forecast for the next 48 hours

Overall summary: Rain starting tomorrow morning, continuing until tomorrow afternoon.

 Date & Hour   Temp   Feel   Baro   Hum   Speed & Bearing   Wind Gust   Precip.%   Precip.   Visibility   Cloud cover   Conditions 
 22/07/2018 - 00:00  22.1°C  22.1°C  1017.3 hPa  60%  8.9 km/h   25.4 km/h  0%  --  16.1km  60%  Mostly Cloudy 
 22/07/2018 - 01:00  21.4°C  21.4°C  1017.5 hPa  60%  10.3 km/h   26.8 km/h  0%  --  16.1km  68%  Mostly Cloudy 
 22/07/2018 - 02:00  20.6°C  20.6°C  1017.6 hPa  61%  11.1 km/h   26.9 km/h  0%  --  16.1km  65%  Mostly Cloudy 
 22/07/2018 - 03:00  19.4°C  19.4°C  1017.6 hPa  64%  10.8 km/h   24.9 km/h  0%  --  16.1km  58%  Partly Cloudy 
 22/07/2018 - 04:00  18.1°C  18.1°C  1017.7 hPa  68%  9.2 km/h   21.5 km/h  1%  0.01 mm/h  16.1km  71%  Mostly Cloudy 
 22/07/2018 - 05:00  16.9°C  16.9°C  1017.8 hPa  72%  8.7 km/h   20.1 km/h  0%  --  16.1km  73%  Mostly Cloudy 
 22/07/2018 - 06:00  16.5°C  16.5°C  1017.8 hPa  73%  8.9 km/h   20.7 km/h  1%  0.03 mm/h  16.1km  87%  Mostly Cloudy 
 22/07/2018 - 07:00  17.4°C  17.4°C  1017.7 hPa  71%  9.7 km/h   20.7 km/h  1%  0.03 mm/h  16.1km  93%  Mostly Cloudy 
 22/07/2018 - 08:00  18.4°C  18.4°C  1017.6 hPa  66%  11.8 km/h   23.8 km/h  7%  0.10 mm/h  16.1km  96%  Overcast 
 22/07/2018 - 09:00  19.2°C  19.2°C  1017.4 hPa  61%  14.1 km/h   28.4 km/h  16%  0.32 mm/h  16.1km  98%  Overcast 
 22/07/2018 - 10:00  19.1°C  19.1°C  1017.0 hPa  66%  16.4 km/h   32.4 km/h  25%  0.99 mm/h  16.1km  99%  Possible Light Rain 
 22/07/2018 - 11:00  19.2°C  19.2°C  1016.6 hPa  69%  18.9 km/h   34.4 km/h  35%  1.73 mm/h  16.1km  99%  Rain 
 22/07/2018 - 12:00  20.1°C  20.1°C  1016.3 hPa  71%  19.8 km/h   36.3 km/h  43%  1.63 mm/h  16.1km  92%  Rain 
 22/07/2018 - 13:00  18.8°C  19.0°C  1015.9 hPa  85%  21.1 km/h   37.9 km/h  61%  1.64 mm/h  13.3km  100%  Rain 
 22/07/2018 - 14:00  20.2°C  20.4°C  1015.5 hPa  84%  20.7 km/h   37.8 km/h  54%  1.57 mm/h  12.4km  100%  Rain 
 22/07/2018 - 15:00  22.0°C  22.3°C  1015.2 hPa  80%  20.8 km/h   37.3 km/h  48%  1.01 mm/h  14.1km  96%  Light Rain 
 22/07/2018 - 16:00  24.2°C  24.7°C  1014.7 hPa  75%  20.3 km/h   36.8 km/h  25%  0.28 mm/h  16.1km  91%  Mostly Cloudy 
 22/07/2018 - 17:00  25.8°C  26.3°C  1014.5 hPa  73%  19.8 km/h   37.0 km/h  9%  0.11 mm/h  16.1km  87%  Mostly Cloudy 
 22/07/2018 - 18:00  26.3°C  27.8°C  1014.5 hPa  73%  18.5 km/h   38.0 km/h  7%  0.06 mm/h  16.1km  86%  Mostly Cloudy 
 22/07/2018 - 19:00  25.7°C  26.3°C  1014.7 hPa  76%  17.1 km/h   39.5 km/h  5%  0.02 mm/h  16.1km  86%  Mostly Cloudy 
 22/07/2018 - 20:00  24.8°C  25.5°C  1015.1 hPa  81%  15.6 km/h   40.9 km/h  5%  0.02 mm/h  16.1km  82%  Mostly Cloudy 
 22/07/2018 - 21:00  24.0°C  24.7°C  1015.7 hPa  84%  14.4 km/h   41.6 km/h  4%  0.04 mm/h  16.1km  73%  Mostly Cloudy 
 22/07/2018 - 22:00  23.4°C  24.1°C  1016.2 hPa  87%  13.5 km/h   41.8 km/h  5%  0.07 mm/h  16.1km  55%  Partly Cloudy 
 22/07/2018 - 23:00  22.9°C  23.6°C  1016.6 hPa  88%  12.7 km/h   41.7 km/h  6%  0.11 mm/h  16.1km  46%  Partly Cloudy 
 23/07/2018 - 00:00  22.6°C  23.3°C  1016.7 hPa  89%  12.0 km/h   41.2 km/h  6%  0.16 mm/h  16.1km  45%  Partly Cloudy 
 23/07/2018 - 01:00  22.5°C  23.1°C  1016.8 hPa  90%  11.5 km/h   40.3 km/h  6%  0.20 mm/h  15.6km  48%  Partly Cloudy 
 23/07/2018 - 02:00  22.1°C  22.8°C  1016.9 hPa  91%  11.2 km/h   39.4 km/h  6%  0.19 mm/h  14.7km  53%  Partly Cloudy 
 23/07/2018 - 03:00  21.9°C  22.5°C  1016.9 hPa  92%  10.6 km/h   38.5 km/h  6%  0.16 mm/h  12.9km  69%  Mostly Cloudy 
 23/07/2018 - 04:00  21.6°C  22.3°C  1017.0 hPa  93%  10.3 km/h   37.6 km/h  9%  0.22 mm/h  11.3km  76%  Mostly Cloudy 
 23/07/2018 - 05:00  21.7°C  22.3°C  1017.1 hPa  93%  10.2 km/h   36.4 km/h  11%  0.29 mm/h  11.4km  81%  Mostly Cloudy 
 23/07/2018 - 06:00  21.9°C  22.6°C  1017.5 hPa  93%  10.2 km/h   34.8 km/h  6%  0.18 mm/h  14.6km  86%  Mostly Cloudy 
 23/07/2018 - 07:00  22.8°C  23.5°C  1017.9 hPa  90%  10.6 km/h   32.9 km/h  3%  0.05 mm/h  16.1km  90%  Mostly Cloudy 
 23/07/2018 - 08:00  23.9°C  24.5°C  1018.2 hPa  86%  12.1 km/h   31.2 km/h  2%  0.01 mm/h  16.1km  91%  Mostly Cloudy 
 23/07/2018 - 09:00  24.9°C  25.6°C  1018.4 hPa  82%  14.1 km/h   30.1 km/h  2%  0.01 mm/h  16.1km  87%  Mostly Cloudy 
 23/07/2018 - 10:00  26.0°C  27.7°C  1018.4 hPa  78%  16.3 km/h   29.6 km/h  4%  0.04 mm/h  16.1km  80%  Mostly Cloudy 
 23/07/2018 - 11:00  27.3°C  29.8°C  1018.5 hPa  73%  17.9 km/h   29.6 km/h  6%  0.08 mm/h  16.1km  77%  Mostly Cloudy 
 23/07/2018 - 12:00  28.3°C  31.2°C  1018.3 hPa  70%  18.8 km/h   29.1 km/h  9%  0.14 mm/h  16.1km  80%  Mostly Cloudy 
 23/07/2018 - 13:00  29.5°C  32.8°C  1018.1 hPa  65%  19.9 km/h   28.6 km/h  9%  0.20 mm/h  16.1km  86%  Mostly Cloudy 
 23/07/2018 - 14:00  30.2°C  33.6°C  1017.9 hPa  62%  21.0 km/h   28.5 km/h  8%  0.29 mm/h  16.1km  89%  Mostly Cloudy 
 23/07/2018 - 15:00  30.2°C  33.6°C  1017.8 hPa  62%  21.9 km/h   28.7 km/h  8%  0.27 mm/h  16.1km  88%  Mostly Cloudy 
 23/07/2018 - 16:00  30.0°C  33.3°C  1017.6 hPa  62%  22.9 km/h   29.4 km/h  9%  0.18 mm/h  16.1km  84%  Mostly Cloudy 
 23/07/2018 - 17:00  29.5°C  32.6°C  1017.5 hPa  64%  22.8 km/h   31.3 km/h  11%  0.11 mm/h  16.1km  76%  Mostly Cloudy 
 23/07/2018 - 18:00  28.9°C  31.7°C  1017.7 hPa  66%  22.4 km/h   35.5 km/h  12%  0.05 mm/h  16.1km  81%  Mostly Cloudy 
 23/07/2018 - 19:00  28.1°C  30.6°C  1018.0 hPa  68%  20.9 km/h   40.9 km/h  16%  0.01 mm/h  16.1km  82%  Mostly Cloudy 
 23/07/2018 - 20:00  27.1°C  29.1°C  1018.3 hPa  71%  19.9 km/h   44.8 km/h  0%  --  16.1km  86%  Mostly Cloudy 
 23/07/2018 - 21:00  26.2°C  27.8°C  1018.7 hPa  75%  18.9 km/h   46.2 km/h  17%  0.03 mm/h  16.1km  85%  Mostly Cloudy 
 23/07/2018 - 22:00  25.3°C  25.9°C  1019.0 hPa  79%  18.5 km/h   45.8 km/h  17%  0.08 mm/h  16.1km  82%  Mostly Cloudy 
 23/07/2018 - 23:00  24.7°C  25.4°C  1019.3 hPa  81%  18.0 km/h   44.8 km/h  11%  0.08 mm/h  16.1km  78%  Mostly Cloudy 
Test

 

Past weather and reports

Past weatherFind in this section the past weather conditions, weather archive, graphics, reports and statistics.

Current conditions

Current weather condition for MontrealAll you need to know about the current weather conditions for Montreal. Weather data is updated every 10 minutes.

Weather forecast

Current Montreal weatherSince 2004, celinium.com website has provided accurate weather forecast for Montreal's island.